Time;durP1;ratioP1;P1;durP2;ratioP2;P2;SDS_P1;SDS_P2;PMS_P1;PMS_P2;Temp;Humidity;BMP_temperature;BMP_pressure;BME280_temperature;BME280_humidity;BME280_pressure;Samples;Min_cycle;Max_cycle;Signal;HPM_P1;HPM_P2
2023/03/09 00:01:53;;;;;;;15.90;8.20;;;5.40;99.90;;;;;;5080040;28;20471;-71
2023/03/09 00:04:19;;;;;;;16.15;8.27;;;5.40;99.90;;;;;;5079991;28;20036;-72
2023/03/09 00:06:44;;;;;;;17.20;8.65;;;5.40;99.90;;;;;;5062054;28;20024;-71
2023/03/09 00:09:12;;;;;;;16.67;7.18;;;5.30;99.90;;;;;;5061070;28;20028;-72
2023/03/09 00:11:42;;;;;;;13.25;6.97;;;5.30;99.90;;;;;;5077508;28;20103;-72
2023/03/09 00:14:08;;;;;;;10.23;5.57;;;5.20;99.90;;;;;;5078261;28;20040;-72
2023/03/09 00:16:36;;;;;;;12.30;6.43;;;5.20;99.90;;;;;;5059567;28;20028;-72
2023/03/09 00:19:02;;;;;;;16.75;8.68;;;5.20;99.90;;;;;;5077219;28;20039;-72
2023/03/09 00:21:34;;;;;;;18.02;9.43;;;5.20;99.90;;;;;;5076575;28;20025;-72
2023/03/09 00:24:04;;;;;;;18.88;10.90;;;5.20;99.90;;;;;;5076643;28;20043;-72
2023/03/09 00:26:30;;;;;;;20.13;10.73;;;5.20;99.90;;;;;;5076854;28;20491;-72
2023/03/09 00:28:56;;;;;;;18.00;10.73;;;5.20;99.90;;;;;;5058724;28;20025;-71
2023/03/09 00:31:22;;;;;;;16.40;7.72;;;5.10;99.90;;;;;;5076541;28;20449;-72
2023/03/09 00:33:48;;;;;;;13.27;7.43;;;5.10;99.90;;;;;;5058599;28;20024;-72
2023/03/09 00:36:16;;;;;;;14.75;8.27;;;5.00;99.90;;;;;;5058412;28;20033;-72
2023/03/09 00:38:42;;;;;;;15.52;8.18;;;5.00;99.90;;;;;;5076319;28;20028;-72
2023/03/09 00:41:08;;;;;;;11.55;5.97;;;5.00;99.90;;;;;;5058288;28;20052;-72
2023/03/09 00:43:34;;;;;;;10.07;5.40;;;5.00;99.90;;;;;;5061472;28;20455;-72
2023/03/09 00:45:59;;;;;;;19.75;9.15;;;5.10;99.90;;;;;;5095101;28;20055;-72
2023/03/09 00:48:25;;;;;;;16.25;8.15;;;5.10;99.90;;;;;;5096515;28;20055;-72
2023/03/09 00:50:51;;;;;;;13.05;7.00;;;5.00;99.90;;;;;;5097053;28;20059;-72
2023/03/09 00:53:17;;;;;;;14.75;6.40;;;5.00;99.90;;;;;;5096829;28;20024;-71
2023/03/09 00:55:43;;;;;;;12.38;6.15;;;4.90;99.90;;;;;;5095871;28;20081;-72
2023/03/09 00:58:10;;;;;;;14.07;7.45;;;5.00;99.90;;;;;;5096097;28;20219;-72
2023/03/09 01:00:37;;;;;;;14.10;7.78;;;4.90;99.90;;;;;;5095704;28;20027;-72
2023/03/09 01:03:03;;;;;;;13.95;7.45;;;4.90;99.90;;;;;;5096990;28;20108;-72
2023/03/09 01:05:28;;;;;;;11.90;5.40;;;4.80;99.90;;;;;;5097794;28;20085;-72
2023/03/09 01:07:54;;;;;;;18.35;7.32;;;4.80;99.90;;;;;;5096382;28;20028;-72
2023/03/09 01:10:20;;;;;;;10.52;6.57;;;4.80;99.90;;;;;;5097662;28;20031;-72
2023/03/09 01:12:46;;;;;;;11.57;6.47;;;4.80;99.90;;;;;;5097069;28;20028;-72
2023/03/09 01:15:12;;;;;;;11.02;7.03;;;4.80;99.90;;;;;;5095943;28;20035;-72
2023/03/09 01:17:38;;;;;;;12.48;7.00;;;4.80;99.90;;;;;;5096805;28;20024;-72
2023/03/09 01:20:05;;;;;;;10.50;5.93;;;4.70;99.90;;;;;;5095209;28;20039;-72
2023/03/09 01:22:31;;;;;;;13.57;5.43;;;4.70;99.90;;;;;;5095031;28;20024;-72
2023/03/09 01:24:57;;;;;;;11.10;5.68;;;4.70;99.90;;;;;;5095636;28;20035;-72
2023/03/09 01:27:22;;;;;;;12.00;5.43;;;4.70;99.90;;;;;;5096377;28;20097;-72
2023/03/09 01:29:48;;;;;;;12.43;5.97;;;4.60;99.90;;;;;;5096982;28;20117;-72
2023/03/09 01:32:14;;;;;;;8.45;6.20;;;4.60;99.90;;;;;;5096466;28;20048;-72
2023/03/09 01:34:40;;;;;;;11.18;6.35;;;4.50;99.90;;;;;;5096484;28;20024;-72
2023/03/09 01:37:06;;;;;;;13.43;6.18;;;4.50;99.90;;;;;;5095343;28;20028;-72
2023/03/09 01:39:31;;;;;;;11.88;5.80;;;4.50;99.90;;;;;;5097405;28;20023;-72
2023/03/09 01:41:57;;;;;;;11.52;6.38;;;4.40;99.90;;;;;;5096527;28;20032;-72
2023/03/09 01:44:23;;;;;;;11.75;5.53;;;4.40;99.90;;;;;;5098089;28;20052;-74
2023/03/09 01:46:54;;;;;;;14.48;5.97;;;4.40;99.90;;;;;;5102786;28;20118;-75
2023/03/09 01:49:34;;;;;;;11.35;5.75;;;4.40;99.90;;;;;;5102504;28;20028;-72
2023/03/09 01:52:09;;;;;;;10.88;4.82;;;4.50;99.90;;;;;;5098395;28;20028;-71
2023/03/09 01:54:50;;;;;;;8.73;5.53;;;4.50;99.90;;;;;;5098562;28;20467;-72
2023/03/09 01:57:32;;;;;;;8.90;5.25;;;4.50;99.90;;;;;;5100062;28;20032;-71
2023/03/09 02:00:07;;;;;;;12.05;5.63;;;4.50;99.90;;;;;;5098521;28;20378;-72
2023/03/09 02:02:37;;;;;;;11.13;5.50;;;4.50;99.90;;;;;;5099005;28;20020;-71
2023/03/09 02:05:06;;;;;;;8.98;5.13;;;4.50;99.90;;;;;;5097682;28;20534;-72
2023/03/09 02:07:36;;;;;;;11.65;6.50;;;4.50;99.90;;;;;;5098516;28;20047;-71
2023/03/09 02:10:17;;;;;;;10.60;5.93;;;4.40;99.90;;;;;;5098032;28;20031;-72
2023/03/09 02:12:47;;;;;;;10.57;4.97;;;4.30;99.90;;;;;;5098247;28;20048;-72
2023/03/09 02:15:13;;;;;;;10.75;5.20;;;4.30;99.90;;;;;;5098120;28;20077;-71
2023/03/09 02:17:39;;;;;;;8.18;5.20;;;4.20;99.90;;;;;;5097417;28;20035;-71
2023/03/09 02:20:22;;;;;;;9.55;5.72;;;4.30;99.90;;;;;;5097670;28;20024;-72
2023/03/09 02:22:48;;;;;;;9.93;5.70;;;4.20;99.90;;;;;;5099177;28;20509;-72
2023/03/09 02:25:21;;;;;;;9.95;4.80;;;4.20;99.90;;;;;;5097068;28;20387;-71
2023/03/09 02:27:48;;;;;;;9.13;4.97;;;4.20;99.90;;;;;;5096810;28;20468;-72
2023/03/09 02:30:14;;;;;;;9.00;5.13;;;4.20;99.90;;;;;;5098243;28;20352;-72
2023/03/09 02:32:39;;;;;;;10.25;5.97;;;4.20;99.90;;;;;;5096768;28;20035;-72
2023/03/09 02:35:09;;;;;;;11.20;5.60;;;4.10;99.90;;;;;;5095883;28;20466;-72
2023/03/09 02:37:38;;;;;;;9.55;5.32;;;4.10;99.90;;;;;;5097709;28;20016;-72
2023/03/09 02:40:27;;;;;;;6.28;5.07;;;4.10;99.90;;;;;;5095931;28;20032;-72
2023/03/09 02:42:53;;;;;;;9.75;5.18;;;4.10;99.90;;;;;;5095837;28;20032;-72
2023/03/09 02:45:21;;;;;;;9.00;5.35;;;4.10;99.90;;;;;;5079716;28;20531;-72
2023/03/09 02:47:48;;;;;;;13.55;7.25;;;4.10;99.90;;;;;;5059037;28;20020;-71
2023/03/09 02:50:14;;;;;;;19.58;8.80;;;4.10;99.90;;;;;;5058657;28;20029;-72
2023/03/09 02:52:40;;;;;;;13.55;7.68;;;4.00;99.90;;;;;;5076015;28;20392;-71
2023/03/09 02:55:07;;;;;;;10.88;6.20;;;4.00;99.90;;;;;;5076561;28;20029;-71
2023/03/09 02:57:33;;;;;;;12.80;6.15;;;4.00;99.90;;;;;;5058713;28;20035;-71
2023/03/09 02:59:58;;;;;;;12.07;6.00;;;4.00;99.90;;;;;;5076555;28;20017;-72
2023/03/09 03:02:24;;;;;;;14.50;5.47;;;4.00;99.90;;;;;;5058998;28;20032;-72
2023/03/09 03:04:50;;;;;;;12.38;6.22;;;4.00;99.90;;;;;;5075953;28;20033;-72
2023/03/09 03:07:15;;;;;;;8.65;5.28;;;4.00;99.90;;;;;;5079373;28;20104;-71
2023/03/09 03:09:41;;;;;;;15.77;6.32;;;4.00;99.90;;;;;;5062365;28;20123;-71
2023/03/09 03:12:07;;;;;;;8.98;5.78;;;4.00;99.90;;;;;;5080586;28;20056;-71
2023/03/09 03:14:32;;;;;;;10.45;5.20;;;4.00;99.90;;;;;;5062490;28;20036;-71
2023/03/09 03:16:58;;;;;;;9.00;5.40;;;4.00;99.90;;;;;;5080095;28;20033;-72
2023/03/09 03:19:24;;;;;;;12.25;5.00;;;4.00;99.90;;;;;;5062688;28;20032;-72
2023/03/09 03:21:50;;;;;;;9.38;5.25;;;4.00;99.90;;;;;;5080296;28;20056;-72
2023/03/09 03:24:16;;;;;;;10.93;5.28;;;4.00;99.90;;;;;;5079885;28;20090;-72
2023/03/09 03:26:42;;;;;;;12.02;5.35;;;4.10;99.90;;;;;;5079708;28;20034;-71
2023/03/09 03:29:08;;;;;;;10.65;5.53;;;4.10;99.90;;;;;;5061436;28;20119;-72
2023/03/09 03:31:34;;;;;;;8.80;4.60;;;4.10;99.90;;;;;;5079533;28;20024;-72
2023/03/09 03:34:00;;;;;;;8.35;5.10;;;4.10;99.90;;;;;;5061710;28;20029;-72
2023/03/09 03:36:25;;;;;;;8.25;5.25;;;4.10;99.90;;;;;;5080277;28;20041;-72
2023/03/09 03:38:51;;;;;;;7.82;4.90;;;4.20;99.90;;;;;;5060858;28;20020;-72
2023/03/09 03:41:17;;;;;;;10.30;5.07;;;4.10;99.90;;;;;;5061024;28;20063;-72
2023/03/09 03:43:42;;;;;;;7.57;4.63;;;4.10;99.90;;;;;;5078514;28;20049;-72
2023/03/09 03:46:08;;;;;;;9.75;4.55;;;4.20;99.90;;;;;;5078647;28;20472;-72
2023/03/09 03:48:34;;;;;;;7.40;4.55;;;4.20;99.90;;;;;;5061087;28;20024;-71
2023/03/09 03:51:00;;;;;;;6.60;4.00;;;4.20;99.90;;;;;;5060378;28;20056;-72
2023/03/09 03:53:25;;;;;;;11.00;4.30;;;4.20;99.90;;;;;;5061040;28;20039;-71
2023/03/09 03:55:51;;;;;;;7.22;3.90;;;4.20;99.90;;;;;;5060936;28;20030;-71
2023/03/09 03:58:17;;;;;;;7.63;4.35;;;4.30;99.90;;;;;;5078344;28;20024;-71
2023/03/09 04:00:42;;;;;;;7.55;4.30;;;4.30;99.90;;;;;;5060312;28;20415;-71
2023/03/09 04:03:08;;;;;;;8.65;4.40;;;4.20;99.90;;;;;;5078408;28;20032;-71
2023/03/09 04:05:34;;;;;;;7.13;4.25;;;4.20;99.90;;;;;;5077747;28;20028;-71
2023/03/09 04:07:59;;;;;;;8.40;4.38;;;4.20;99.90;;;;;;5077823;28;20044;-72
2023/03/09 04:10:25;;;;;;;6.93;3.67;;;4.20;99.90;;;;;;5059675;28;20067;-71
2023/03/09 04:12:51;;;;;;;6.93;4.05;;;4.20;99.90;;;;;;5078766;28;20104;-71
2023/03/09 04:15:17;;;;;;;5.90;4.18;;;4.10;99.90;;;;;;5063343;28;20040;-71
2023/03/09 04:17:43;;;;;;;9.05;4.30;;;4.10;99.90;;;;;;5080794;28;20032;-72
2023/03/09 04:20:09;;;;;;;11.90;4.07;;;4.10;99.90;;;;;;5063896;28;20171;-71
2023/03/09 04:22:35;;;;;;;6.70;4.18;;;4.00;99.90;;;;;;5063899;28;20388;-72
2023/03/09 04:25:01;;;;;;;9.68;3.88;;;4.00;99.90;;;;;;5063270;28;20077;-71
2023/03/09 04:27:27;;;;;;;8.07;4.13;;;4.00;99.90;;;;;;5081099;28;20058;-71
2023/03/09 04:29:52;;;;;;;9.07;4.20;;;4.00;99.90;;;;;;5081096;28;20021;-72
2023/03/09 04:32:18;;;;;;;6.70;4.22;;;3.90;99.90;;;;;;5080925;28;20029;-71
2023/03/09 04:34:44;;;;;;;7.03;4.22;;;3.90;99.90;;;;;;5062821;28;20024;-71
2023/03/09 04:37:11;;;;;;;7.78;3.95;;;3.80;99.90;;;;;;5062576;28;20032;-71
2023/03/09 04:39:37;;;;;;;9.05;4.75;;;3.80;99.90;;;;;;5080534;28;20052;-71
2023/03/09 04:42:03;;;;;;;7.80;4.10;;;3.70;99.90;;;;;;5080092;28;20380;-71
2023/03/09 04:44:29;;;;;;;7.55;3.95;;;3.70;99.90;;;;;;5080501;28;20054;-71
2023/03/09 04:46:54;;;;;;;5.10;3.65;;;3.70;99.90;;;;;;5101120;28;20074;-71
2023/03/09 04:49:20;;;;;;;11.13;4.13;;;3.70;99.90;;;;;;5098587;28;20028;-71
2023/03/09 04:51:47;;;;;;;6.70;4.45;;;3.70;99.90;;;;;;5099385;28;20028;-71
2023/03/09 04:54:12;;;;;;;7.32;4.50;;;3.70;99.90;;;;;;5099211;28;20032;-71
2023/03/09 04:56:38;;;;;;;9.10;4.65;;;3.60;99.90;;;;;;5099217;28;20528;-71
2023/03/09 04:59:04;;;;;;;6.97;3.95;;;3.60;99.90;;;;;;5098722;28;20032;-71
2023/03/09 05:01:29;;;;;;;6.28;3.95;;;3.50;99.90;;;;;;5096835;28;20036;-71
2023/03/09 05:03:55;;;;;;;8.57;4.93;;;3.40;99.90;;;;;;5097438;28;20028;-71
2023/03/09 05:06:21;;;;;;;9.68;4.65;;;3.40;99.90;;;;;;5097209;28;20024;-71
2023/03/09 05:08:46;;;;;;;8.85;5.10;;;3.30;99.90;;;;;;5096511;28;20031;-71
2023/03/09 05:11:12;;;;;;;9.85;4.70;;;3.30;99.90;;;;;;5094915;28;20115;-69
2023/03/09 05:13:38;;;;;;;9.45;4.35;;;3.20;99.90;;;;;;5096183;28;20106;-69
2023/03/09 05:16:07;;;;;;;9.85;4.22;;;3.20;99.90;;;;;;5095999;28;20024;-70
2023/03/09 05:18:34;;;;;;;10.90;4.93;;;3.10;99.90;;;;;;5094733;28;20035;-70
2023/03/09 05:21:07;;;;;;;10.27;4.22;;;3.10;99.90;;;;;;5095949;28;20074;-70
2023/03/09 05:23:36;;;;;;;8.30;4.45;;;3.10;99.90;;;;;;5095579;28;20024;-70
2023/03/09 05:26:06;;;;;;;;;;;3.10;99.90;;;;;;5094358;28;20030;-69
2023/03/09 05:28:33;;;;;;;9.40;3.80;;;3.10;99.90;;;;;;5094480;28;20373;-69
2023/03/09 05:30:58;;;;;;;9.45;4.25;;;3.10;99.90;;;;;;5094188;28;20050;-68
2023/03/09 05:33:24;;;;;;;9.23;4.32;;;3.20;99.90;;;;;;5095118;28;20028;-68
2023/03/09 05:35:50;;;;;;;7.72;4.50;;;3.30;99.90;;;;;;5095299;28;20032;-69
2023/03/09 05:38:16;;;;;;;8.55;4.38;;;3.40;99.90;;;;;;5094482;28;20421;-69
2023/03/09 05:40:43;;;;;;;12.10;5.57;;;3.60;99.90;;;;;;5094954;28;20058;-68
2023/03/09 05:43:09;;;;;;;13.40;5.25;;;3.70;99.90;;;;;;5093962;28;20024;-70
2023/03/09 05:45:34;;;;;;;12.25;4.82;;;3.80;99.90;;;;;;5074776;28;20048;-69
2023/03/09 05:48:00;;;;;;;12.50;4.90;;;3.90;99.90;;;;;;5057008;28;20432;-69
2023/03/09 05:50:26;;;;;;;6.47;3.95;;;4.00;99.90;;;;;;5056804;28;20056;-69
2023/03/09 05:52:51;;;;;;;9.00;5.35;;;4.30;99.90;;;;;;5074851;28;20402;-69
2023/03/09 05:55:17;;;;;;;4.55;2.08;;;4.60;99.90;;;;;;5075194;28;20468;-69
2023/03/09 05:57:43;;;;;;;4.13;1.50;;;5.30;99.90;;;;;;5057232;28;20353;-69
2023/03/09 06:00:12;;;;;;;2.15;1.33;;;6.50;99.90;;;;;;5075021;28;20097;-69
2023/03/09 06:02:37;;;;;;;1.35;1.15;;;7.90;99.90;;;;;;5074678;28;20372;-69
2023/03/09 06:05:03;;;;;;;2.38;1.00;;;8.90;99.90;;;;;;5074720;28;20037;-69
2023/03/09 06:07:30;;;;;;;2.25;1.38;;;9.40;99.90;;;;;;5058095;28;20048;-70
2023/03/09 06:09:55;;;;;;;1.17;1.02;;;9.70;99.90;;;;;;5076040;28;20025;-70
2023/03/09 06:12:22;;;;;;;5.32;1.13;;;9.80;99.90;;;;;;5057789;28;20478;-70
2023/03/09 06:14:48;;;;;;;1.27;1.13;;;10.00;99.90;;;;;;5057193;28;20029;-70
2023/03/09 06:17:15;;;;;;;2.63;1.40;;;10.00;99.90;;;;;;5057304;28;20024;-70
2023/03/09 06:19:41;;;;;;;2.17;1.10;;;10.10;99.90;;;;;;5057948;28;20059;-70
2023/03/09 06:22:06;;;;;;;1.92;1.02;;;10.10;99.90;;;;;;5057790;28;20028;-70
2023/03/09 06:24:32;;;;;;;1.60;1.27;;;10.00;99.90;;;;;;5076517;28;20419;-70
2023/03/09 06:26:58;;;;;;;1.40;1.02;;;10.10;99.90;;;;;;5075232;28;20040;-70
2023/03/09 06:29:27;;;;;;;3.28;0.95;;;10.30;99.90;;;;;;5075111;28;20445;-70
2023/03/09 06:31:53;;;;;;;3.72;0.85;;;10.50;99.90;;;;;;5057157;28;20024;-70
2023/03/09 06:34:18;;;;;;;1.15;0.90;;;10.90;99.90;;;;;;5058069;28;20086;-70
2023/03/09 06:36:44;;;;;;;3.50;0.90;;;11.40;99.90;;;;;;5057790;28;20024;-70
2023/03/09 06:39:10;;;;;;;1.10;0.70;;;11.70;99.90;;;;;;5074997;28;20031;-70
2023/03/09 06:41:36;;;;;;;1.50;0.82;;;11.80;99.90;;;;;;5055616;28;20035;-70
2023/03/09 06:44:03;;;;;;;0.75;0.63;;;11.90;99.90;;;;;;5074925;28;20048;-70
2023/03/09 06:46:29;;;;;;;1.75;0.63;;;11.90;99.90;;;;;;5057180;28;20029;-70
2023/03/09 06:48:54;;;;;;;1.48;0.60;;;11.80;99.90;;;;;;5057262;28;20078;-70
2023/03/09 06:51:21;;;;;;;3.88;0.85;;;11.80;99.90;;;;;;5075074;28;20392;-70
2023/03/09 06:53:47;;;;;;;2.55;0.50;;;11.80;99.90;;;;;;5056678;28;20025;-69
2023/03/09 06:56:13;;;;;;;1.92;0.70;;;11.80;99.90;;;;;;5057088;28;20028;-70
2023/03/09 06:58:39;;;;;;;0.95;0.50;;;11.80;99.90;;;;;;5056967;28;20380;-70
2023/03/09 07:01:10;;;;;;;6.82;1.45;;;11.90;99.90;;;;;;5057185;28;20112;-70
2023/03/09 07:03:36;;;;;;;2.33;0.70;;;11.90;99.90;;;;;;5075817;28;20021;-70
2023/03/09 07:06:02;;;;;;;2.70;0.55;;;11.90;99.90;;;;;;5057860;28;20025;-70
2023/03/09 07:08:28;;;;;;;2.00;0.82;;;12.10;99.90;;;;;;5076992;28;20117;-70
2023/03/09 07:10:54;;;;;;;4.57;0.43;;;12.40;99.90;;;;;;5076539;28;20412;-70
2023/03/09 07:13:19;;;;;;;2.08;0.70;;;12.50;99.90;;;;;;5075369;28;20029;-70
2023/03/09 07:15:45;;;;;;;2.92;0.60;;;12.80;99.90;;;;;;5074804;28;20064;-70
2023/03/09 07:18:11;;;;;;;0.43;0.30;;;13.00;99.90;;;;;;5074586;28;20028;-70
2023/03/09 07:20:41;;;;;;;1.27;0.20;;;13.20;99.90;;;;;;5056799;28;20036;-70
2023/03/09 07:23:08;;;;;;;1.52;0.30;;;13.10;99.90;;;;;;5076080;28;20035;-70
2023/03/09 07:25:35;;;;;;;1.85;0.32;;;13.00;99.90;;;;;;5057406;28;20043;-70
2023/03/09 07:28:02;;;;;;;0.50;0.20;;;13.00;99.90;;;;;;5075178;28;20084;-70
2023/03/09 07:30:29;;;;;;;1.58;0.30;;;13.00;99.90;;;;;;5075611;28;20028;-70
2023/03/09 07:32:59;;;;;;;0.75;0.10;;;13.20;99.90;;;;;;5075033;28;20037;-70
2023/03/09 07:35:25;;;;;;;7.78;0.20;;;13.40;99.90;;;;;;5075151;28;20107;-70
2023/03/09 07:37:51;;;;;;;1.90;0.20;;;13.50;99.90;;;;;;5074587;28;20029;-70
2023/03/09 07:40:18;;;;;;;1.95;0.30;;;13.60;99.90;;;;;;5073836;28;20035;-70
2023/03/09 07:42:45;;;;;;;0.40;0.10;;;14.00;99.90;;;;;;5073107;28;20460;-70
2023/03/09 07:45:11;;;;;;;2.55;0.20;;;14.10;99.90;;;;;;5073675;28;20072;-70
2023/03/09 07:47:36;;;;;;;3.35;0.20;;;14.20;99.90;;;;;;5055379;28;20082;-70
2023/03/09 07:50:03;;;;;;;0.90;0.10;;;14.60;99.30;;;;;;5073365;28;20107;-69
2023/03/09 07:52:31;;;;;;;1.95;0.40;;;15.10;98.00;;;;;;5075122;28;20070;-69
2023/03/09 07:55:01;;;;;;;1.80;0.20;;;15.50;96.70;;;;;;5076889;28;20111;-70
2023/03/09 07:57:33;;;;;;;1.35;0.40;;;16.00;94.30;;;;;;5076562;28;20167;-70
2023/03/09 08:00:00;;;;;;;1.15;0.47;;;16.10;92.80;;;;;;5058564;28;20028;-69
2023/03/09 08:02:26;;;;;;;0.20;0.10;;;15.70;92.60;;;;;;5076597;28;20024;-70
2023/03/09 08:04:52;;;;;;;0.90;0.20;;;15.20;93.40;;;;;;5076428;28;20119;-70
2023/03/09 08:07:19;;;;;;;1.48;0.28;;;14.70;94.60;;;;;;5076529;28;20063;-70
2023/03/09 08:09:44;;;;;;;0.40;0.10;;;14.40;95.00;;;;;;5076463;28;20040;-70
2023/03/09 08:12:10;;;;;;;0.28;0.10;;;14.20;95.50;;;;;;5059514;28;20376;-70
2023/03/09 08:14:36;;;;;;;0.60;0.10;;;14.10;95.50;;;;;;5077545;28;20039;-70
2023/03/09 08:17:03;;;;;;;0.65;0.10;;;14.30;95.10;;;;;;5077789;28;20464;-70
2023/03/09 08:19:29;;;;;;;0.32;0.10;;;14.50;94.50;;;;;;5058929;28;20163;-70
2023/03/09 08:21:56;;;;;;;1.10;0.25;;;15.00;93.50;;;;;;5058685;28;20028;-70
2023/03/09 08:24:21;;;;;;;1.73;0.28;;;15.20;93.10;;;;;;5076148;28;20029;-70
2023/03/09 08:26:47;;;;;;;3.33;0.17;;;15.60;91.80;;;;;;5058191;28;20027;-70
2023/03/09 08:29:13;;;;;;;0.22;0.15;;;15.90;90.50;;;;;;5059552;28;20020;-70
2023/03/09 08:31:39;;;;;;;2.42;0.10;;;16.10;88.90;;;;;;5078217;28;20102;-72
2023/03/09 08:34:04;;;;;;;0.28;0.22;;;15.90;88.30;;;;;;5077352;28;20025;-70
2023/03/09 08:36:30;;;;;;;5.40;0.32;;;15.50;89.10;;;;;;5060362;28;20043;-70
2023/03/09 08:38:57;;;;;;;3.83;0.10;;;15.00;90.40;;;;;;5078486;28;20032;-70
2023/03/09 08:41:23;;;;;;;0.75;0.20;;;15.00;90.70;;;;;;5059214;28;20024;-70
2023/03/09 08:43:50;;;;;;;1.90;0.13;;;15.20;90.30;;;;;;5077407;28;20131;-70
2023/03/09 08:46:16;;;;;;;3.10;0.22;;;15.70;88.20;;;;;;5075815;28;20119;-70
2023/03/09 08:48:42;;;;;;;0.20;0.10;;;15.90;86.30;;;;;;5075809;28;20021;-70
2023/03/09 08:51:09;;;;;;;0.30;0.10;;;15.60;86.80;;;;;;5075658;28;20025;-70
2023/03/09 08:53:37;;;;;;;1.75;0.20;;;15.40;87.50;;;;;;5075748;28;20029;-70
2023/03/09 08:56:08;;;;;;;1.92;0.10;;;15.20;88.30;;;;;;5075849;28;20024;-70
2023/03/09 08:58:34;;;;;;;1.38;0.10;;;15.20;89.00;;;;;;5076130;28;20017;-70
2023/03/09 09:01:01;;;;;;;7.15;0.20;;;15.00;88.80;;;;;;5076863;28;20423;-70
2023/03/09 09:03:30;;;;;;;1.65;0.13;;;14.80;89.90;;;;;;5078658;28;20024;-70
2023/03/09 09:06:02;;;;;;;4.90;0.30;;;14.70;90.20;;;;;;5060536;28;20406;-70
2023/03/09 09:08:28;;;;;;;0.10;0.08;;;14.60;90.70;;;;;;5078612;28;20032;-70
2023/03/09 09:10:56;;;;;;;1.65;0.20;;;14.70;91.00;;;;;;5077159;28;20028;-70
2023/03/09 09:13:23;;;;;;;0.52;0.28;;;14.70;91.10;;;;;;5077302;28;20027;-70
2023/03/09 09:15:55;;;;;;;0.10;0.10;;;14.60;91.30;;;;;;5077917;28;20033;-70
2023/03/09 09:18:21;;;;;;;4.28;0.28;;;14.90;91.10;;;;;;5057979;28;20040;-70
2023/03/09 09:20:47;;;;;;;9.43;0.63;;;15.40;90.10;;;;;;5076364;28;20025;-70
2023/03/09 09:23:14;;;;;;;3.20;0.20;;;15.70;89.00;;;;;;5075218;28;20453;-70
2023/03/09 09:25:40;;;;;;;0.77;0.10;;;15.50;89.40;;;;;;5057414;28;20376;-70
2023/03/09 09:28:05;;;;;;;5.38;0.10;;;15.60;89.90;;;;;;5057061;28;20077;-70
2023/03/09 09:30:32;;;;;;;0.73;0.10;;;15.90;88.90;;;;;;5075174;28;20039;-70
2023/03/09 09:32:59;;;;;;;2.47;0.10;;;15.80;88.40;;;;;;5075365;28;20028;-70
2023/03/09 09:35:25;;;;;;;0.52;0.20;;;15.70;90.00;;;;;;5056916;28;20051;-70
2023/03/09 09:37:54;;;;;;;1.27;0.20;;;15.80;89.50;;;;;;5074856;28;20452;-70
2023/03/09 09:40:20;;;;;;;2.97;0.15;;;15.90;89.60;;;;;;5074520;28;20056;-70
2023/03/09 09:42:47;;;;;;;3.30;0.17;;;16.00;89.20;;;;;;5056752;28;20046;-70
2023/03/09 09:45:33;;;;;;;1.88;0.10;;;15.40;90.30;;;;;;5083313;28;20044;-70
2023/03/09 09:48:03;;;;;;;1.35;0.15;;;15.10;91.70;;;;;;5096719;28;20024;-70
2023/03/09 09:50:49;;;;;;;1.52;0.38;;;15.20;91.70;;;;;;5095317;28;20016;-70
2023/03/09 09:53:27;;;;;;;0.38;0.00;;;15.70;91.40;;;;;;5095460;28;20032;-70
2023/03/09 09:55:53;;;;;;;2.13;0.17;;;15.70;90.90;;;;;;5093855;28;20028;-70
2023/03/09 09:58:43;;;;;;;0.32;0.10;;;15.90;90.70;;;;;;5093645;28;20032;-70
2023/03/09 10:01:47;;;;;;;1.95;0.10;;;15.80;90.70;;;;;;5095889;28;20028;-70
2023/03/09 10:04:22;;;;;;;5.15;0.30;;;15.70;90.90;;;;;;4995877;28;20041;-70
2023/03/09 10:06:48;;;;;;;0.25;0.10;;;16.10;90.00;;;;;;5098474;28;20390;-70
2023/03/09 10:09:28;;;;;;;1.27;0.10;;;16.00;90.40;;;;;;5093533;28;20105;-70
2023/03/09 10:11:59;;;;;;;5.57;0.68;;;16.80;88.30;;;;;;5094328;28;20058;-70
2023/03/09 10:14:29;;;;;;;0.28;0.00;;;17.30;85.20;;;;;;5093693;28;20028;-70
2023/03/09 10:17:14;;;;;;;1.23;0.20;;;17.70;82.30;;;;;;5094324;28;20039;-70
2023/03/09 10:19:40;;;;;;;0.22;0.15;;;17.50;81.40;;;;;;5094555;28;20038;-69
2023/03/09 10:22:16;;;;;;;1.10;0.30;;;17.00;83.30;;;;;;5094267;28;20050;-70
2023/03/09 10:24:46;;;;;;;4.63;0.22;;;16.40;84.20;;;;;;5094253;28;20028;-70
2023/03/09 10:27:34;;;;;;;0.30;0.10;;;15.90;86.60;;;;;;5094447;28;20020;-70
2023/03/09 10:30:25;;;;;;;0.13;0.13;;;15.90;87.90;;;;;;5094299;28;20028;-70
2023/03/09 10:32:57;;;;;;;1.27;0.10;;;15.90;87.80;;;;;;5093962;28;20440;-70
2023/03/09 10:35:29;;;;;;;1.15;0.10;;;15.70;88.30;;;;;;5094372;28;20093;-70
2023/03/09 10:37:55;;;;;;;0.68;0.10;;;15.60;88.90;;;;;;5093142;28;20027;-70
2023/03/09 10:40:29;;;;;;;1.38;0.13;;;15.10;90.60;;;;;;5092996;28;20024;-70
2023/03/09 10:42:57;;;;;;;1.52;0.60;;;15.10;90.80;;;;;;5094200;28;20016;-70
2023/03/09 10:45:28;;;;;;;1.70;0.22;;;14.90;91.50;;;;;;5079026;28;20135;-70
2023/03/09 10:48:00;;;;;;;5.18;0.50;;;14.50;92.60;;;;;;5074824;28;20028;-70
2023/03/09 10:50:40;;;;;;;2.42;0.10;;;14.30;93.10;;;;;;5057369;28;20034;-70
2023/03/09 10:53:35;;;;;;;1.60;0.20;;;14.40;93.60;;;;;;5056612;28;20025;-70
2023/03/09 10:56:20;;;;;;;2.47;0.30;;;15.30;92.50;;;;;;5052150;28;20040;-70
2023/03/09 10:58:46;;;;;;;3.00;0.30;;;16.90;86.90;;;;;;5073559;28;20020;-70
2023/03/09 11:01:15;;;;;;;1.27;0.25;;;17.70;81.00;;;;;;5073479;28;20024;-70
2023/03/09 11:03:42;;;;;;;0.90;0.25;;;17.90;79.40;;;;;;5072941;28;20024;-69
2023/03/09 11:06:14;;;;;;;2.47;0.50;;;18.30;74.40;;;;;;5055388;28;20040;-70
2023/03/09 11:08:52;;;;;;;1.25;0.28;;;18.20;73.90;;;;;;5073550;28;20060;-69
2023/03/09 11:11:21;;;;;;;2.25;0.47;;;18.30;72.20;;;;;;5055967;28;20021;-71
2023/03/09 11:13:47;;;;;;;;;;;18.40;68.90;;;;;;5055768;28;20025;-70
2023/03/09 11:16:34;;;;;;;1.88;0.20;;;18.30;68.70;;;;;;5073545;28;19991;-70
2023/03/09 11:19:14;;;;;;;7.85;0.30;;;18.00;67.30;;;;;;5073275;28;20021;-70
2023/03/09 11:21:49;;;;;;;0.52;0.20;;;18.00;66.70;;;;;;5073318;28;20032;-70
2023/03/09 11:24:16;;;;;;;3.70;0.38;;;17.50;67.30;;;;;;5055583;28;20365;-71
2023/03/09 11:26:59;;;;;;;4.50;0.45;;;16.70;68.60;;;;;;5056418;28;20025;-71
2023/03/09 11:29:35;;;;;;;0.95;0.35;;;16.30;71.60;;;;;;5059265;28;20464;-70
2023/03/09 11:32:01;;;;;;;2.10;0.40;;;17.70;68.50;;;;;;5059329;28;20059;-71
2023/03/09 11:34:34;;;;;;;5.22;0.45;;;18.40;64.50;;;;;;5077072;28;20056;-70
2023/03/09 11:37:12;;;;;;;2.03;0.43;;;18.50;62.20;;;;;;5077109;28;20059;-71
2023/03/09 11:39:53;;;;;;;2.43;0.30;;;18.80;60.40;;;;;;5076629;28;20028;-71
2023/03/09 11:42:28;;;;;;;4.90;0.40;;;19.00;59.80;;;;;;5076991;28;20025;-71
2023/03/09 11:44:54;;;;;;;2.88;0.30;;;18.80;59.50;;;;;;5079893;28;20052;-70
2023/03/09 11:47:29;;;;;;;2.83;0.70;;;18.20;59.70;;;;;;5095905;28;20115;-70
2023/03/09 11:49:59;;;;;;;3.30;0.40;;;18.20;59.30;;;;;;5096223;28;20060;-71
2023/03/09 11:52:39;;;;;;;4.18;0.38;;;17.20;61.40;;;;;;5095760;28;20515;-70
2023/03/09 11:55:12;;;;;;;3.30;0.52;;;17.80;60.70;;;;;;5097186;28;20070;-70
2023/03/09 11:57:43;;;;;;;1.75;0.40;;;17.90;59.80;;;;;;5097105;28;20052;-70
2023/03/09 12:00:15;;;;;;;3.17;0.43;;;17.50;60.10;;;;;;5095742;28;20020;-70
2023/03/09 12:03:08;;;;;;;1.73;0.35;;;17.80;60.40;;;;;;5096608;28;20035;-69
2023/03/09 12:05:39;;;;;;;2.55;0.40;;;17.80;59.00;;;;;;5095506;28;20519;-70
2023/03/09 12:08:11;;;;;;;1.58;0.35;;;17.30;60.10;;;;;;5096840;28;20529;-70
2023/03/09 12:10:43;;;;;;;1.95;0.30;;;16.80;60.90;;;;;;5096786;28;20142;-70
2023/03/09 12:13:15;;;;;;;2.83;0.40;;;16.80;61.70;;;;;;5095200;28;20028;-70
2023/03/09 12:16:20;;;;;;;2.33;0.40;;;17.00;62.00;;;;;;5096537;28;20039;-70
2023/03/09 12:19:11;;;;;;;3.00;0.70;;;18.40;59.40;;;;;;5096475;28;20472;-70
2023/03/09 12:21:40;;;;;;;2.70;0.30;;;19.30;56.20;;;;;;5096612;28;20033;-70
2023/03/09 12:24:17;;;;;;;;;;;20.20;54.70;;;;;;5095575;28;20031;-70
2023/03/09 12:26:43;;;;;;;2.05;0.32;;;20.30;53.50;;;;;;5096291;28;19979;-71
2023/03/09 12:29:22;;;;;;;4.68;0.60;;;20.30;52.80;;;;;;5096012;28;20047;-71
2023/03/09 12:32:29;;;;;;;2.55;0.88;;;20.30;52.30;;;;;;5095222;28;20028;-71
2023/03/09 12:34:57;;;;;;;3.95;0.50;;;20.20;52.40;;;;;;5085144;28;20391;-71
2023/03/09 12:37:38;;;;;;;4.03;0.70;;;20.40;52.40;;;;;;5095814;28;20470;-70
2023/03/09 12:40:15;;;;;;;4.63;0.45;;;19.50;52.60;;;;;;5095901;28;20028;-70
2023/03/09 12:42:43;;;;;;;2.33;0.50;;;19.30;54.10;;;;;;5095604;28;20027;-71
2023/03/09 12:45:12;;;;;;;6.95;0.70;;;19.40;53.90;;;;;;5081123;28;20036;-71
2023/03/09 12:47:46;;;;;;;2.92;0.25;;;19.50;53.50;;;;;;5057457;28;20037;-70
2023/03/09 12:50:24;;;;;;;2.85;0.30;;;19.10;54.30;;;;;;5075687;28;20035;-70
2023/03/09 12:52:58;;;;;;;2.80;1.08;;;18.70;54.50;;;;;;5075587;28;20481;-70
2023/03/09 12:55:42;;;;;;;2.63;0.30;;;18.50;55.70;;;;;;5057591;28;20395;-70
2023/03/09 12:58:20;;;;;;;1.38;0.47;;;18.00;56.90;;;;;;5075391;28;20103;-71
2023/03/09 13:01:31;;;;;;;2.17;0.28;;;18.00;58.30;;;;;;5057591;28;20030;-70